Terminal Aerodrome Forecast
Issued by NWS Jackson, MS

Home | Current Version | Previous Version | Text Only | Print | Product List | Glossary On
Versions: 1 2 3 4 5 6 7 8 9 10 11 12 13 14
024
FTUS44 KJAN 211135
TAFJAN
TAF
KJAN 211135Z 2112/2212 00000KT 6SM BR FEW250
     FM211300 10003KT P6SM FEW050 FEW250=

USA.gov is the U.S. government's official web portal to all federal, state and local government web resources and services.